Time;durP1;ratioP1;P1;durP2;ratioP2;P2;SDS_P1;SDS_P2;PMS_P1;PMS_P2;Temp;Humidity;BMP_temperature;BMP_pressure;BME280_temperature;BME280_humidity;BME280_pressure;Samples;Min_cycle;Max_cycle;Signal;HPM_P1;HPM_P2
2022/08/26 00:01:16;;;;;;;1.10;0.40;;;;;;;12.35;100.00;101323.13;5000531;28;20168;-79
2022/08/26 00:03:42;;;;;;;0.30;0.30;;;;;;;12.32;100.00;101324.31;4986979;28;20128;-78
2022/08/26 00:06:08;;;;;;;0.30;0.30;;;;;;;12.31;100.00;101336.13;5001577;28;20041;-78
2022/08/26 00:08:33;;;;;;;0.30;0.30;;;;;;;12.30;100.00;101334.44;4968060;28;20099;-79
2022/08/26 00:10:59;;;;;;;0.30;0.30;;;;;;;12.23;100.00;101343.41;4986668;28;20034;-77
2022/08/26 00:13:25;;;;;;;3.72;0.52;;;;;;;12.18;100.00;101349.28;5002270;28;20037;-77
2022/08/26 00:15:51;;;;;;;0.95;0.40;;;;;;;12.07;100.00;101346.97;5006358;28;20038;-77
2022/08/26 00:18:17;;;;;;;0.30;0.30;;;;;;;12.07;100.00;101347.81;4971415;28;20042;-78
2022/08/26 00:20:43;;;;;;;0.30;0.30;;;;;;;12.05;100.00;101357.91;4964894;28;20030;-78
2022/08/26 00:23:09;;;;;;;0.30;0.30;;;;;;;12.01;100.00;101363.78;4989840;28;20042;-78
2022/08/26 00:25:36;;;;;;;0.30;0.30;;;;;;;12.00;100.00;101368.34;4979228;28;20032;-77
2022/08/26 00:28:02;;;;;;;0.30;0.30;;;;;;;12.01;100.00;101366.50;4984714;28;20117;-77
2022/08/26 00:30:29;;;;;;;0.30;0.30;;;;;;;12.01;100.00;101361.97;5000460;28;20038;-77
2022/08/26 00:32:56;;;;;;;2.33;0.90;;;;;;;11.99;100.00;101363.16;5005877;28;20112;-76
2022/08/26 00:35:22;;;;;;;0.30;0.30;;;;;;;12.02;100.00;101377.13;4997984;28;20025;-77
2022/08/26 00:37:49;;;;;;;0.30;0.30;;;;;;;11.97;100.00;101360.63;5004853;28;20069;-77
2022/08/26 00:40:23;;;;;;;0.30;0.30;;;;;;;12.05;100.00;101373.25;4985203;28;20534;-78
2022/08/26 00:42:49;;;;;;;0.30;0.30;;;;;;;12.04;100.00;101377.78;4988832;28;20380;-78
2022/08/26 00:45:18;;;;;;;0.30;0.30;;;;;;;12.04;100.00;101366.16;4985037;28;20045;-77
2022/08/26 00:47:47;;;;;;;1.75;1.65;;;;;;;12.05;100.00;101363.28;4998265;28;20133;-78
2022/08/26 00:50:20;;;;;;;0.30;0.30;;;;;;;12.05;100.00;101371.38;4999319;28;20038;-77
2022/08/26 00:52:46;;;;;;;0.85;0.85;;;;;;;12.03;100.00;101368.00;5004208;28;20056;-77
2022/08/26 00:55:18;;;;;;;0.50;0.50;;;;;;;11.93;100.00;101363.81;4990864;28;20050;-76
2022/08/26 00:57:48;;;;;;;2.65;0.70;;;;;;;11.99;100.00;101365.84;4978659;28;20046;-76
2022/08/26 01:00:24;;;;;;;0.30;0.30;;;;;;;11.99;100.00;101377.47;4993012;28;20042;-77
2022/08/26 01:02:49;;;;;;;0.30;0.30;;;;;;;11.97;100.00;101370.56;4992361;28;20032;-75
2022/08/26 01:05:16;;;;;;;0.30;0.30;;;;;;;11.91;100.00;101366.69;5011215;28;20037;-76
2022/08/26 01:07:42;;;;;;;0.30;0.30;;;;;;;11.94;100.00;101366.34;4984221;28;20039;-75
2022/08/26 01:10:11;;;;;;;0.30;0.30;;;;;;;11.96;100.00;101385.03;5002559;28;20038;-76
2022/08/26 01:12:45;;;;;;;0.30;0.30;;;;;;;11.93;100.00;101378.13;4987432;28;20034;-76
2022/08/26 01:15:12;;;;;;;;;;;;;;;11.93;100.00;101396.16;4989847;28;20121;-75
2022/08/26 01:17:38;;;;;;;0.30;0.30;;;;;;;11.88;100.00;101392.13;4974303;28;19933;-75
2022/08/26 01:20:17;;;;;;;0.38;0.38;;;;;;;11.85;100.00;101399.66;5003418;28;20516;-75
2022/08/26 01:22:54;;;;;;;0.30;0.30;;;;;;;11.87;100.00;101403.06;5000239;28;20034;-77
2022/08/26 01:25:20;;;;;;;0.40;0.40;;;;;;;11.86;100.00;101413.00;4970559;28;20033;-76
2022/08/26 01:27:46;;;;;;;0.30;0.30;;;;;;;11.87;100.00;101411.16;4983107;28;20033;-76
2022/08/26 01:30:12;;;;;;;1.70;0.40;;;;;;;11.91;100.00;101419.72;4990487;28;20396;-76
2022/08/26 01:32:38;;;;;;;0.30;0.30;;;;;;;11.91;100.00;101411.63;5000691;28;20480;-76
2022/08/26 01:35:05;;;;;;;0.68;0.52;;;;;;;11.91;100.00;101425.97;5004135;28;20446;-75
2022/08/26 01:37:36;;;;;;;0.30;0.30;;;;;;;11.85;100.00;101422.06;5000614;28;20042;-75
2022/08/26 01:40:05;;;;;;;0.50;0.40;;;;;;;11.79;100.00;101427.28;4987333;28;20460;-76
2022/08/26 01:42:31;;;;;;;0.50;0.50;;;;;;;11.72;100.00;101421.69;5004475;28;20069;-76
2022/08/26 01:45:06;;;;;;;0.70;0.50;;;;;;;11.65;100.00;101426.09;4990670;28;20040;-77
2022/08/26 01:47:34;;;;;;;3.08;0.80;;;;;;;11.60;100.00;101425.75;4986567;28;20038;-76
2022/08/26 01:50:04;;;;;;;0.40;0.40;;;;;;;11.56;100.00;101427.91;5011613;28;20484;-76
2022/08/26 01:52:31;;;;;;;3.40;1.27;;;;;;;11.51;100.00;101424.03;4979544;28;20104;-76
2022/08/26 01:54:57;;;;;;;0.85;0.85;;;;;;;11.43;100.00;101422.16;4992940;28;20034;-75
2022/08/26 01:57:25;;;;;;;28.95;1.05;;;;;;;11.43;100.00;101424.84;4983888;28;21576;-76
2022/08/26 01:59:54;;;;;;;0.65;0.65;;;;;;;11.42;100.00;101425.88;4984235;28;20034;-78
2022/08/26 02:02:20;;;;;;;0.90;0.90;;;;;;;11.41;100.00;101425.03;4988459;28;20026;-76
2022/08/26 02:04:49;;;;;;;1.30;0.80;;;;;;;11.44;100.00;101430.09;5004094;28;20487;-76
2022/08/26 02:07:17;;;;;;;7.93;0.93;;;;;;;11.40;100.00;101417.13;5006505;28;20034;-76
2022/08/26 02:09:42;;;;;;;10.98;1.25;;;;;;;11.49;100.00;101436.84;5006165;28;20387;-76
2022/08/26 02:12:10;;;;;;;0.80;0.65;;;;;;;11.52;100.00;101441.91;5006982;28;20112;-76
2022/08/26 02:14:39;;;;;;;1.27;0.95;;;;;;;11.50;100.00;101443.91;4991556;28;20113;-78
2022/08/26 02:17:07;;;;;;;2.55;1.00;;;;;;;11.53;100.00;101444.41;5001648;28;20115;-77
2022/08/26 02:19:35;;;;;;;4.65;1.00;;;;;;;11.53;100.00;101443.56;4989992;28;20034;-77
2022/08/26 02:22:05;;;;;;;0.88;0.73;;;;;;;11.51;100.00;101438.38;5007954;28;20030;-79
2022/08/26 02:24:48;;;;;;;1.30;0.73;;;;;;;11.51;100.00;101446.44;5001560;28;20068;-78
2022/08/26 02:27:15;;;;;;;4.32;1.20;;;;;;;11.55;100.00;101455.03;5005936;28;20111;-77
2022/08/26 02:29:44;;;;;;;0.38;0.38;;;;;;;11.54;100.00;101451.50;4998995;28;20029;-77
2022/08/26 02:32:11;;;;;;;2.50;0.85;;;;;;;11.55;100.00;101463.09;5006353;28;20040;-78
2022/08/26 02:34:36;;;;;;;2.92;0.90;;;;;;;11.49;100.00;101456.53;4989260;28;20072;-78
2022/08/26 02:37:06;;;;;;;9.23;1.20;;;;;;;11.40;100.00;101463.72;4983270;28;20101;-77
2022/08/26 02:39:32;;;;;;;2.60;0.75;;;;;;;11.28;100.00;101469.59;4996804;28;20495;-78
2022/08/26 02:41:58;;;;;;;2.40;1.00;;;;;;;11.13;100.00;101470.19;5003812;28;20109;-77
2022/08/26 02:44:24;;;;;;;5.68;1.55;;;;;;;11.04;100.00;101470.34;5000802;28;20511;-78
2022/08/26 02:46:51;;;;;;;3.90;1.08;;;;;;;10.79;100.00;101462.13;4997513;28;20023;-77
2022/08/26 02:49:18;;;;;;;2.38;1.02;;;;;;;10.64;100.00;101469.97;5002384;28;20036;-77
2022/08/26 02:51:45;;;;;;;4.00;0.95;;;;;;;10.58;100.00;101478.66;4986766;28;20566;-77
2022/08/26 02:54:12;;;;;;;2.28;1.25;;;;;;;10.32;100.00;101465.22;4983373;28;20518;-78
2022/08/26 02:56:37;;;;;;;3.15;1.27;;;;;;;10.31;100.00;101485.84;4987068;28;20044;-77
2022/08/26 02:59:03;;;;;;;4.25;1.23;;;;;;;10.15;100.00;101482.19;4998717;28;20403;-77
2022/08/26 03:01:31;;;;;;;2.50;1.25;;;;;;;10.08;100.00;101490.00;5005653;28;20367;-77
2022/08/26 03:03:58;;;;;;;2.13;1.08;;;;;;;9.94;100.00;101488.72;5006773;28;20083;-77
2022/08/26 03:06:24;;;;;;;3.05;1.65;;;;;;;9.80;100.00;101494.63;4992559;28;20038;-77
2022/08/26 03:08:50;;;;;;;8.20;1.13;;;;;;;9.61;100.00;101491.09;4979160;28;20033;-76
2022/08/26 03:11:17;;;;;;;6.65;1.50;;;;;;;9.44;100.00;101486.50;4985627;28;20049;-77
2022/08/26 03:13:43;;;;;;;5.20;1.88;;;;;;;9.40;100.00;101493.19;4984952;28;20080;-77
2022/08/26 03:16:09;;;;;;;4.22;1.63;;;;;;;9.25;100.00;101482.94;5002530;28;20042;-78
2022/08/26 03:18:35;;;;;;;10.88;1.70;;;;;;;9.36;100.00;101497.16;5004533;28;20041;-77
2022/08/26 03:21:10;;;;;;;6.00;1.85;;;;;;;9.37;100.00;101497.03;5007925;28;20045;-77
2022/08/26 03:23:37;;;;;;;10.20;1.73;;;;;;;9.28;100.00;101497.91;4985004;28;20169;-77
2022/08/26 03:26:04;;;;;;;5.90;1.55;;;;;;;9.15;100.00;101492.03;4966554;28;20046;-77
2022/08/26 03:28:32;;;;;;;3.05;1.45;;;;;;;9.06;100.00;101501.81;4970703;28;20033;-77
2022/08/26 03:30:58;;;;;;;2.97;1.58;;;;;;;8.77;100.00;101478.63;4969135;28;20049;-77
2022/08/26 03:33:24;;;;;;;4.25;1.95;;;;;;;8.77;100.00;101505.44;4985194;28;20034;-78
2022/08/26 03:35:51;;;;;;;3.00;1.30;;;;;;;8.70;100.00;101503.50;4986942;28;20541;-77
2022/08/26 03:38:18;;;;;;;3.20;1.27;;;;;;;8.65;100.00;101503.94;4972824;28;20037;-77
2022/08/26 03:40:44;;;;;;;7.53;2.05;;;;;;;8.66;100.00;101502.13;5006649;28;20129;-77
2022/08/26 03:43:10;;;;;;;12.00;1.52;;;;;;;8.69;100.00;101505.34;5003605;28;20109;-77
2022/08/26 03:45:37;;;;;;;8.57;1.73;;;;;;;8.67;100.00;101498.44;4998415;28;20384;-77
2022/08/26 03:48:03;;;;;;;5.88;1.73;;;;;;;8.64;100.00;101501.41;4968589;28;20038;-78
2022/08/26 03:50:29;;;;;;;10.20;1.50;;;;;;;8.57;100.00;101506.47;4973944;28;20034;-77
2022/08/26 03:52:55;;;;;;;5.28;1.70;;;;;;;8.48;100.00;101493.97;5006629;28;20049;-77
2022/08/26 03:55:23;;;;;;;4.03;1.25;;;;;;;8.44;100.00;101497.91;4985988;28;20561;-77
2022/08/26 03:57:49;;;;;;;6.88;1.52;;;;;;;8.43;100.00;101502.44;4980079;28;20124;-77
2022/08/26 04:00:16;;;;;;;4.70;1.63;;;;;;;8.49;100.00;101499.16;4985098;28;20403;-76
2022/08/26 04:02:46;;;;;;;5.30;1.50;;;;;;;8.51;100.00;101499.03;4995209;28;20311;-76
2022/08/26 04:05:12;;;;;;;5.78;1.70;;;;;;;8.44;100.00;101501.47;5000741;28;20033;-76
2022/08/26 04:07:39;;;;;;;5.88;2.03;;;;;;;8.33;100.00;101507.75;4985298;28;20045;-77
2022/08/26 04:10:06;;;;;;;2.72;1.38;;;;;;;8.14;100.00;101508.63;5002462;28;20133;-77
2022/08/26 04:12:32;;;;;;;5.03;1.98;;;;;;;7.92;100.00;101512.44;4988539;28;20396;-77
2022/08/26 04:14:58;;;;;;;17.13;2.72;;;;;;;7.85;100.00;101505.94;4984202;28;20082;-77
2022/08/26 04:17:25;;;;;;;3.88;1.20;;;;;;;7.80;100.00;101510.03;5002565;28;20447;-77
2022/08/26 04:19:52;;;;;;;5.60;1.90;;;;;;;7.66;100.00;101504.09;4968668;28;20120;-77
2022/08/26 04:22:18;;;;;;;8.13;1.60;;;;;;;7.72;100.00;101510.72;4973776;28;20113;-77
2022/08/26 04:24:45;;;;;;;3.00;1.70;;;;;;;7.62;100.00;101500.00;4976493;28;20068;-77
2022/08/26 04:27:10;;;;;;;8.30;1.95;;;;;;;7.56;100.00;101502.38;4986622;28;20081;-77
2022/08/26 04:29:38;;;;;;;6.22;1.60;;;;;;;7.51;100.00;101508.13;4969990;28;20069;-77
2022/08/26 04:32:04;;;;;;;3.50;1.42;;;;;;;7.48;100.00;101487.84;4983615;28;20419;-77
2022/08/26 04:34:31;;;;;;;8.55;1.85;;;;;;;7.73;100.00;101501.72;4983620;28;20480;-77
2022/08/26 04:36:56;;;;;;;7.70;1.70;;;;;;;7.84;100.00;101498.91;4967707;28;20416;-77
2022/08/26 04:39:23;;;;;;;4.07;1.67;;;;;;;7.86;100.00;101496.94;4996018;28;20044;-77
2022/08/26 04:41:49;;;;;;;3.42;1.73;;;;;;;7.84;100.00;101503.41;4995042;28;20089;-76
2022/08/26 04:44:15;;;;;;;2.38;1.40;;;;;;;7.65;100.00;101504.25;4977607;28;20064;-78
2022/08/26 04:46:41;;;;;;;2.25;1.33;;;;;;;7.45;100.00;101509.53;4962985;28;20429;-77
2022/08/26 04:49:07;;;;;;;7.88;1.48;;;;;;;7.38;100.00;101508.41;4980846;28;20111;-76
2022/08/26 04:51:36;;;;;;;2.58;1.20;;;;;;;7.27;100.00;101503.16;4984977;28;20044;-77
2022/08/26 04:54:02;;;;;;;6.28;1.58;;;;;;;7.13;100.00;101507.06;4995330;28;20558;-77
2022/08/26 04:56:34;;;;;;;5.55;1.40;;;;;;;7.01;100.00;101511.66;4985024;28;20025;-76
2022/08/26 04:59:01;;;;;;;3.35;1.52;;;;;;;6.81;100.00;101493.84;4971654;28;20109;-77
2022/08/26 05:01:28;;;;;;;11.45;1.40;;;;;;;6.76;100.00;101498.72;4999157;28;20113;-76
2022/08/26 05:03:54;;;;;;;3.25;1.80;;;;;;;6.75;100.00;101507.72;4984950;28;20034;-76
2022/08/26 05:06:20;;;;;;;2.97;1.25;;;;;;;6.71;100.00;101514.31;5002790;28;20103;-77
2022/08/26 05:08:46;;;;;;;3.55;1.23;;;;;;;6.58;100.00;101501.16;4984266;28;20039;-77
2022/08/26 05:11:12;;;;;;;6.97;1.33;;;;;;;6.75;100.00;101526.44;5006991;28;20042;-77
2022/08/26 05:13:38;;;;;;;2.22;1.52;;;;;;;6.58;100.00;101507.34;4989126;28;20188;-76
2022/08/26 05:16:06;;;;;;;2.60;1.23;;;;;;;6.61;100.00;101519.59;5004527;28;20045;-77
2022/08/26 05:18:32;;;;;;;2.25;1.50;;;;;;;6.77;100.00;101530.69;4966530;28;20038;-76
2022/08/26 05:20:59;;;;;;;2.38;1.20;;;;;;;6.82;100.00;101515.06;5004609;28;20030;-76
2022/08/26 05:23:25;;;;;;;5.68;1.65;;;;;;;7.05;100.00;101530.94;4970538;28;20065;-77
2022/08/26 05:25:53;;;;;;;7.82;2.70;;;;;;;7.24;100.00;101538.19;4987522;28;20045;-77
2022/08/26 05:28:20;;;;;;;7.30;1.90;;;;;;;7.38;100.00;101540.53;4979711;28;20069;-77
2022/08/26 05:30:47;;;;;;;2.47;1.58;;;;;;;7.38;100.00;101531.63;4968252;28;20038;-77
2022/08/26 05:33:13;;;;;;;4.35;2.15;;;;;;;7.31;100.00;101542.03;5004915;28;20088;-77
2022/08/26 05:35:39;;;;;;;3.53;1.90;;;;;;;7.22;100.00;101542.81;4980085;28;20465;-77
2022/08/26 05:38:11;;;;;;;9.25;1.90;;;;;;;7.16;100.00;101535.34;4998346;28;20037;-77
2022/08/26 05:40:43;;;;;;;3.97;1.57;;;;;;;7.02;100.00;101536.56;5004517;28;20157;-77
2022/08/26 05:43:10;;;;;;;7.78;2.10;;;;;;;6.93;100.00;101543.56;5005612;28;20462;-76
2022/08/26 05:45:37;;;;;;;3.95;1.40;;;;;;;6.73;100.00;101555.13;4971402;28;20041;-78
2022/08/26 05:48:07;;;;;;;4.75;1.55;;;;;;;6.71;100.00;101557.06;4970914;28;20041;-76
2022/08/26 05:50:48;;;;;;;4.10;1.92;;;;;;;6.74;100.00;101556.81;4971720;28;20038;-77
2022/08/26 05:53:17;;;;;;;8.88;1.38;;;;;;;6.71;100.00;101557.91;4983508;28;20030;-77
2022/08/26 05:55:44;;;;;;;3.47;1.48;;;;;;;6.67;100.00;101563.66;4993001;28;20038;-77
2022/08/26 05:58:11;;;;;;;7.00;1.92;;;;;;;6.49;100.00;101553.56;4986740;28;20814;-77
2022/08/26 06:00:37;;;;;;;2.50;1.30;;;;;;;6.38;100.00;101567.81;4992329;28;20061;-77
2022/08/26 06:03:02;;;;;;;3.83;1.40;;;;;;;6.37;100.00;101571.44;5006801;28;20476;-76
2022/08/26 06:05:28;;;;;;;3.28;1.70;;;;;;;6.31;100.00;101568.47;5002121;28;20113;-77
2022/08/26 06:10:55;;;;;;;3.97;1.48;;;;;;;6.42;100.00;101564.88;5006343;28;20044;-76
2022/08/26 06:13:25;;;;;;;2.75;1.75;;;;;;;6.51;100.00;101567.63;4988130;28;20121;-77
2022/08/26 06:15:52;;;;;;;3.70;1.67;;;;;;;6.64;100.00;101570.09;4965257;28;20138;-76
2022/08/26 06:18:21;;;;;;;3.65;1.77;;;;;;;6.64;100.00;101574.59;4983365;28;20136;-77
2022/08/26 06:20:48;;;;;;;6.80;2.05;;;;;;;6.41;100.00;101537.34;5001895;28;20628;-79
2022/08/26 06:26:01;;;;;;;4.95;1.05;;;;;;;6.89;100.00;101576.88;4999322;28;20496;-77
2022/08/26 06:28:27;;;;;;;3.78;1.40;;;;;;;6.91;100.00;101576.75;4971440;28;20038;-77
2022/08/26 06:30:54;;;;;;;5.35;1.45;;;;;;;6.91;100.00;101580.28;5006948;28;20435;-78
2022/08/26 06:33:24;;;;;;;4.43;1.00;;;;;;;6.95;100.00;101573.66;4971397;28;20432;-78
2022/08/26 06:35:49;;;;;;;2.67;1.23;;;;;;;7.05;100.00;101584.44;4985003;28;20488;-77
2022/08/26 06:38:16;;;;;;;4.25;1.23;;;;;;;7.24;100.00;101572.97;4990609;28;20038;-76
2022/08/26 06:40:44;;;;;;;2.30;0.90;;;;;;;7.43;100.00;101566.84;4999079;28;20088;-76
2022/08/26 06:43:11;;;;;;;2.00;1.10;;;;;;;7.48;100.00;101533.34;4984727;28;20349;-76
2022/08/26 06:45:38;;;;;;;2.67;1.40;;;;;;;7.93;100.00;101567.69;5006850;28;20045;-76
2022/08/26 06:48:06;;;;;;;5.18;1.52;;;;;;;8.22;100.00;101587.44;4994978;28;20038;-78
2022/08/26 06:50:41;;;;;;;2.38;1.15;;;;;;;8.35;100.00;101570.09;4966262;28;20034;-78
2022/08/26 06:53:09;;;;;;;2.63;1.63;;;;;;;8.65;100.00;101587.03;4967475;28;20034;-78
2022/08/26 06:55:45;;;;;;;7.88;1.70;;;;;;;8.86;100.00;101584.19;4981842;28;20056;-78
2022/08/26 06:58:12;;;;;;;4.53;1.83;;;;;;;8.95;100.00;101583.31;5001685;28;20041;-78
2022/08/26 07:00:38;;;;;;;7.13;1.70;;;;;;;8.93;100.00;101585.31;4985227;28;20276;-77
2022/08/26 07:03:05;;;;;;;8.70;2.28;;;;;;;8.99;100.00;101590.06;4991606;28;20844;-78
2022/08/26 07:05:31;;;;;;;10.05;2.35;;;;;;;9.15;100.00;101597.50;4978432;28;20033;-78
2022/08/26 07:07:57;;;;;;;7.38;2.22;;;;;;;9.19;100.00;101577.47;5002324;28;20510;-78
2022/08/26 07:10:24;;;;;;;4.30;2.30;;;;;;;10.03;100.00;101594.41;4995899;28;20085;-77
2022/08/26 07:12:50;;;;;;;17.30;2.75;;;;;;;12.22;100.00;101592.44;4989151;28;20030;-77
2022/08/26 07:15:16;;;;;;;11.93;3.00;;;;;;;13.85;100.00;101596.75;4981128;28;20125;-78
2022/08/26 07:17:42;;;;;;;5.40;2.70;;;;;;;14.97;100.00;101601.69;4966703;28;20043;-79
2022/08/26 07:20:08;;;;;;;9.40;2.78;;;;;;;15.83;96.74;101573.97;4984241;28;20030;-78
2022/08/26 07:22:35;;;;;;;11.93;2.80;;;;;;;16.61;90.41;101597.72;4986674;28;20025;-78
2022/08/26 07:25:06;;;;;;;7.13;2.28;;;;;;;17.18;88.07;101612.22;4981192;28;20480;-79
2022/08/26 07:27:37;;;;;;;8.80;2.47;;;;;;;17.56;86.03;101608.03;4987888;28;20144;-78
2022/08/26 07:30:06;;;;;;;7.00;2.20;;;;;;;17.91;85.01;101612.59;5001016;28;20072;-78
2022/08/26 07:32:36;;;;;;;7.78;2.40;;;;;;;18.38;85.78;101606.25;4983502;28;20030;-78
2022/08/26 07:35:05;;;;;;;8.93;1.98;;;;;;;16.50;89.90;101582.78;4986850;28;20590;-79
2022/08/26 07:38:01;;;;;;;5.13;2.10;;;;;;;16.49;93.99;101610.97;4988245;28;20084;-78
2022/08/26 07:40:27;;;;;;;8.85;2.22;;;;;;;15.15;98.31;101604.91;4989442;28;20073;-78
2022/08/26 07:42:53;;;;;;;8.27;2.40;;;;;;;14.28;100.00;101610.69;4989584;28;20057;-78
2022/08/26 07:45:18;;;;;;;7.80;2.35;;;;;;;15.58;100.00;101610.50;4984443;28;20490;-78
2022/08/26 07:47:44;;;;;;;11.63;2.50;;;;;;;17.60;93.82;101616.63;4997148;28;20036;-78
2022/08/26 07:50:12;;;;;;;6.75;2.30;;;;;;;19.19;87.12;101618.88;5002856;28;20040;-78
2022/08/26 07:52:38;;;;;;;7.47;2.88;;;;;;;20.03;82.87;101609.00;5002135;28;20526;-78
2022/08/26 07:55:06;;;;;;;6.35;2.10;;;;;;;20.98;80.17;101625.34;5004831;28;20038;-78
2022/08/26 07:57:33;;;;;;;7.25;2.10;;;;;;;21.64;76.83;101621.13;4987455;28;20060;-78
2022/08/26 07:59:59;;;;;;;5.25;2.00;;;;;;;22.12;73.30;101614.00;4967172;28;20113;-79
2022/08/26 08:02:26;;;;;;;9.30;2.47;;;;;;;22.31;73.01;101621.16;5004496;28;20065;-79
2022/08/26 08:04:53;;;;;;;7.65;2.38;;;;;;;22.71;72.22;101617.78;5007370;28;20375;-79
2022/08/26 08:07:20;;;;;;;12.07;2.53;;;;;;;22.94;69.54;101624.34;4984091;28;20078;-79
2022/08/26 08:09:48;;;;;;;7.63;2.63;;;;;;;23.00;69.54;101621.53;4985101;28;20046;-79
2022/08/26 08:12:14;;;;;;;10.38;2.20;;;;;;;23.35;69.41;101633.59;4997212;28;20036;-79
2022/08/26 08:14:44;;;;;;;9.25;2.20;;;;;;;23.60;67.35;101625.06;4986828;28;20037;-78
2022/08/26 08:17:10;;;;;;;11.18;4.20;;;;;;;23.82;68.07;101625.31;4985007;28;20034;-78
2022/08/26 08:19:36;;;;;;;11.65;2.58;;;;;;;24.14;66.46;101611.94;4968376;28;20479;-77
2022/08/26 08:22:03;;;;;;;8.07;2.55;;;;;;;24.06;64.36;101624.13;4982951;28;20030;-78
2022/08/26 08:24:32;;;;;;;7.72;1.92;;;;;;;24.16;65.98;101619.91;4983725;28;20683;-78
2022/08/26 08:26:59;;;;;;;7.63;2.08;;;;;;;24.48;65.61;101606.53;4980872;28;20055;-84
2022/08/26 08:29:28;;;;;;;5.35;1.88;;;;;;;24.79;64.99;101613.34;5018546;28;20049;-84
2022/08/26 08:31:58;;;;;;;12.98;4.15;;;;;;;24.91;63.60;101608.63;4987007;28;20038;-87
2022/08/26 08:34:25;;;;;;;8.88;2.47;;;;;;;25.08;66.73;101605.00;4990620;28;20037;-87
2022/08/26 08:36:51;;;;;;;11.32;2.10;;;;;;;25.60;64.36;101610.19;4984199;28;20100;-80
2022/08/26 08:39:17;;;;;;;5.65;1.58;;;;;;;25.58;62.47;101604.91;4991782;28;20117;-80
2022/08/26 08:42:03;;;;;;;6.38;1.67;;;;;;;25.65;64.15;101607.50;4997881;28;20432;-80
2022/08/26 08:44:28;;;;;;;6.75;1.77;;;;;;;25.17;63.38;101611.81;5005809;28;20037;-81
2022/08/26 08:46:58;;;;;;;8.02;2.00;;;;;;;24.73;65.26;101590.44;4988456;28;20029;-81
2022/08/26 08:49:27;;;;;;;8.63;1.73;;;;;;;25.30;64.51;101608.69;4990483;28;20042;-80
2022/08/26 08:51:59;;;;;;;4.95;1.58;;;;;;;24.12;65.60;101600.34;4986625;28;20034;-80
2022/08/26 08:54:25;;;;;;;9.45;1.65;;;;;;;25.33;64.05;101607.34;4999244;28;20125;-79
2022/08/26 08:57:09;;;;;;;7.03;1.60;;;;;;;26.74;62.55;101611.97;4984088;28;20030;-80
2022/08/26 08:59:42;;;;;;;6.97;2.28;;;;;;;26.90;56.39;101612.09;4990051;28;20124;-79
2022/08/26 09:02:28;;;;;;;4.32;1.75;;;;;;;25.20;68.39;101611.28;4978238;28;20042;-80
2022/08/26 09:05:24;;;;;;;5.65;1.60;;;;;;;26.04;63.10;101610.19;4980635;28;20038;-80
2022/08/26 09:08:21;;;;;;;3.95;1.27;;;;;;;22.60;60.11;101611.22;4988433;28;20547;-80
2022/08/26 09:10:53;;;;;;;3.80;1.52;;;;;;;19.68;78.10;101608.50;4980527;28;20493;-80
2022/08/26 09:13:19;;;;;;;3.13;1.33;;;;;;;18.43;76.27;101609.19;4988889;28;20104;-80
2022/08/26 09:15:45;;;;;;;5.65;0.90;;;;;;;17.63;86.67;101605.34;4989202;28;20095;-80
2022/08/26 09:18:13;;;;;;;8.60;1.48;;;;;;;21.11;73.40;101597.03;4989699;28;20033;-80
2022/08/26 09:20:48;;;;;;;4.53;1.45;;;;;;;21.00;72.78;101601.34;4982950;28;20100;-79
2022/08/26 09:23:14;;;;;;;6.53;1.40;;;;;;;19.33;74.07;101603.31;5008394;28;20033;-79
2022/08/26 09:25:53;;;;;;;3.45;1.00;;;;;;;18.25;80.53;101611.66;4982116;28;20041;-80
2022/08/26 09:28:21;;;;;;;2.50;1.00;;;;;;;17.50;77.74;101599.84;4994674;28;20037;-79
2022/08/26 09:31:00;;;;;;;3.42;2.05;;;;;;;21.01;74.38;101602.19;4984598;28;20042;-79
2022/08/26 09:33:28;;;;;;;4.95;1.60;;;;;;;24.65;66.22;101609.28;4973532;28;20049;-80
2022/08/26 09:36:31;;;;;;;2.10;0.95;;;;;;;22.69;60.83;101594.41;4986537;28;20056;-80
2022/08/26 09:38:56;;;;;;;4.22;1.60;;;;;;;23.27;59.62;101588.97;5003296;28;20041;-80
2022/08/26 09:41:31;;;;;;;4.45;1.50;;;;;;;25.08;50.73;101607.75;5004442;28;20484;-80
2022/08/26 09:44:03;;;;;;;1.73;1.30;;;;;;;26.89;44.43;101596.66;4965107;28;20023;-78
2022/08/26 09:46:29;;;;;;;6.90;1.65;;;;;;;25.64;48.03;101597.53;5005103;28;20034;-78
2022/08/26 09:48:54;;;;;;;7.22;1.35;;;;;;;27.27;43.27;101608.50;5002476;28;20040;-78
2022/08/26 09:51:25;;;;;;;4.93;1.20;;;;;;;24.86;42.21;101602.22;5006571;28;20034;-78
2022/08/26 09:54:02;;;;;;;3.42;0.95;;;;;;;22.26;48.73;101612.78;4988473;28;20499;-79
2022/08/26 09:56:31;;;;;;;4.68;1.25;;;;;;;20.78;48.68;101609.13;4990676;28;20038;-79
2022/08/26 09:58:58;;;;;;;4.60;1.42;;;;;;;19.96;52.80;101613.63;4967339;28;20503;-77
2022/08/26 10:01:41;;;;;;;5.25;1.35;;;;;;;21.36;49.24;101607.97;4974278;28;20048;-78
2022/08/26 10:04:26;;;;;;;3.42;2.38;;;;;;;24.45;39.32;101607.00;5004420;28;20026;-83
2022/08/26 10:07:01;;;;;;;3.45;1.40;;;;;;;26.38;35.14;101607.22;4972317;28;20068;-72
2022/08/26 10:09:47;;;;;;;2.65;1.50;;;;;;;28.39;29.88;101616.38;4970055;28;20053;-75
2022/08/26 10:12:20;;;;;;;4.38;1.00;;;;;;;27.92;30.34;101609.94;4971965;28;20407;-74
2022/08/26 10:14:56;;;;;;;;;;;;;;;27.24;32.08;101603.53;4978376;28;20096;-74
2022/08/26 10:17:34;;;;;;;4.22;1.00;;;;;;;26.44;31.27;101607.00;4981040;28;20645;-74
2022/08/26 10:20:15;;;;;;;5.22;0.80;;;;;;;24.06;35.97;101604.91;4980703;28;20030;-76
2022/08/26 10:23:01;;;;;;;4.13;0.88;;;;;;;22.66;37.64;101573.78;4981705;28;20069;-76
2022/08/26 10:25:31;;;;;;;4.68;0.98;;;;;;;21.78;39.47;101599.06;4999168;28;20041;-76
2022/08/26 10:28:03;;;;;;;5.80;1.00;;;;;;;21.19;42.13;101599.50;4978648;28;20034;-76
2022/08/26 10:30:43;;;;;;;3.70;1.10;;;;;;;20.92;42.78;101609.84;5002965;28;20065;-77
2022/08/26 10:33:13;;;;;;;2.95;0.98;;;;;;;20.60;43.87;101609.06;5004861;28;20050;-74
2022/08/26 10:35:49;;;;;;;2.70;0.80;;;;;;;20.34;45.10;101619.06;4996200;28;20027;-74
2022/08/26 10:38:18;;;;;;;3.83;0.95;;;;;;;20.22;44.68;101626.31;4984946;28;20100;-74
2022/08/26 10:40:55;;;;;;;2.15;0.80;;;;;;;20.75;44.63;101619.69;4996705;28;20022;-76
2022/08/26 10:43:28;;;;;;;3.55;1.13;;;;;;;21.00;42.89;101617.75;4973411;28;20034;-75
2022/08/26 10:46:02;;;;;;;1.65;1.17;;;;;;;24.86;36.63;101625.03;4985077;28;20600;-74
2022/08/26 10:48:38;;;;;;;4.35;1.10;;;;;;;26.88;32.17;101622.56;4968970;28;20423;-77
2022/08/26 10:51:04;;;;;;;4.03;0.90;;;;;;;27.66;29.61;101603.47;4982350;28;20426;-74
2022/08/26 10:53:45;;;;;;;2.22;1.00;;;;;;;28.18;27.57;101610.84;4979688;28;20049;-75
2022/08/26 10:56:58;;;;;;;4.65;1.08;;;;;;;28.24;27.90;101614.44;4983830;28;20511;-75
2022/08/26 10:59:29;;;;;;;2.53;0.90;;;;;;;28.68;26.76;101605.63;4990408;28;20037;-74
2022/08/26 11:02:10;;;;;;;2.03;0.95;;;;;;;28.14;26.72;101589.53;5002457;28;20395;-75
2022/08/26 11:04:40;;;;;;;1.90;1.13;;;;;;;28.41;27.54;101612.25;4966949;28;20463;-75
2022/08/26 11:07:29;;;;;;;2.58;0.80;;;;;;;28.63;26.92;101614.78;5003137;28;20048;-77
2022/08/26 11:09:55;;;;;;;3.55;1.10;;;;;;;28.89;27.11;101607.28;5005983;28;20069;-75
2022/08/26 11:12:33;;;;;;;2.40;1.08;;;;;;;30.45;25.33;101605.31;5000340;28;20042;-76
2022/08/26 11:14:59;;;;;;;3.08;1.20;;;;;;;31.37;24.51;101611.13;4997173;28;20034;-74
2022/08/26 11:17:43;;;;;;;3.63;1.23;;;;;;;32.43;23.31;101608.06;4970561;28;20361;-78
2022/08/26 11:20:21;;;;;;;2.55;1.00;;;;;;;30.37;24.94;101596.78;4989770;28;20073;-76
2022/08/26 11:23:23;;;;;;;2.10;0.80;;;;;;;27.67;28.07;101607.06;5004877;28;20113;-75
2022/08/26 11:25:55;;;;;;;2.72;0.80;;;;;;;27.55;28.84;101608.13;4988704;28;20081;-75
2022/08/26 11:28:34;;;;;;;5.45;0.80;;;;;;;25.43;32.60;101605.56;4988062;28;20033;-74
2022/08/26 11:31:00;;;;;;;2.22;1.15;;;;;;;28.14;27.70;101600.59;5001501;28;20061;-75
2022/08/26 11:33:45;;;;;;;1.73;0.90;;;;;;;28.55;27.94;101612.56;4982562;28;20057;-74
2022/08/26 11:36:28;;;;;;;1.98;0.60;;;;;;;25.97;30.03;101601.28;4984307;28;20030;-74
2022/08/26 11:38:54;;;;;;;1.60;0.90;;;;;;;25.24;31.30;101587.66;5004734;28;20395;-76